Time;durP1;ratioP1;P1;durP2;ratioP2;P2;SDS_P1;SDS_P2;PMS_P1;PMS_P2;Temp;Humidity;BMP_temperature;BMP_pressure;BME280_temperature;BME280_humidity;BME280_pressure;Samples;Min_cycle;Max_cycle;Signal;HPM_P1;HPM_P2
2023/03/08 00:00:09;;;;;;;0.10;0.10;;;;;;;16.12;45.80;100024.34;2096531;28;20049;-55
2023/03/08 00:01:15;;;;;;;0.10;0.10;;;;;;;16.10;45.96;100024.75;2106793;28;20044;-55
2023/03/08 00:02:17;;;;;;;0.10;0.10;;;;;;;16.10;45.70;100024.75;2107234;28;20051;-54
2023/03/08 00:03:20;;;;;;;0.00;0.00;;;;;;;16.10;46.02;100023.97;2112662;28;20054;-54
2023/03/08 00:04:22;;;;;;;0.05;0.05;;;;;;;16.10;45.69;100015.78;2109180;28;20581;-55
2023/03/08 00:05:26;;;;;;;0.08;0.08;;;;;;;16.09;45.71;100023.19;2107736;28;20054;-54
2023/03/08 00:06:28;;;;;;;0.03;0.03;;;;;;;16.11;45.71;100033.69;2109796;28;20126;-55
2023/03/08 00:07:31;;;;;;;0.10;0.10;;;;;;;16.10;45.90;100026.69;2105770;28;20056;-55
2023/03/08 00:08:35;;;;;;;0.10;0.10;;;;;;;16.10;45.73;100024.75;2107827;28;20101;-55
2023/03/08 00:09:38;;;;;;;0.10;0.10;;;;;;;16.09;45.74;100025.91;2106667;28;20524;-55
2023/03/08 00:10:40;;;;;;;0.10;0.10;;;;;;;16.09;45.71;100020.47;2110951;28;20086;-55
2023/03/08 00:11:43;;;;;;;0.00;0.00;;;;;;;16.09;45.74;100025.16;2110621;28;20143;-55
2023/03/08 00:12:45;;;;;;;0.10;0.10;;;;;;;16.08;45.82;100027.09;2110983;28;20066;-55
2023/03/08 00:13:48;;;;;;;0.00;0.00;;;;;;;16.09;45.71;100023.19;2107581;28;20039;-53
2023/03/08 00:14:50;;;;;;;0.05;0.05;;;;;;;16.08;45.84;100029.81;2108066;28;20123;-55
2023/03/08 00:15:53;;;;;;;0.08;0.08;;;;;;;16.08;45.88;100029.81;2106721;28;20060;-55
2023/03/08 00:16:55;;;;;;;0.03;0.03;;;;;;;16.07;45.63;100025.53;2098442;28;20052;-55
2023/03/08 00:17:58;;;;;;;0.00;0.00;;;;;;;16.08;45.63;100032.53;2102354;28;20055;-55
2023/03/08 00:19:00;;;;;;;0.00;0.00;;;;;;;16.04;45.79;100018.16;2111107;28;20066;-55
2023/03/08 00:20:05;;;;;;;0.05;0.05;;;;;;;16.09;45.81;100028.63;2108345;28;20627;-55
2023/03/08 00:21:09;;;;;;;0.00;0.00;;;;;;;16.08;45.79;100027.09;2105447;28;20104;-54
2023/03/08 00:22:12;;;;;;;0.00;0.00;;;;;;;16.07;45.76;100031.00;2106270;28;20139;-55
2023/03/08 00:23:14;;;;;;;0.10;0.10;;;;;;;16.07;45.74;100028.28;2108170;28;20079;-52
2023/03/08 00:24:18;;;;;;;0.00;0.00;;;;;;;16.07;45.85;100027.47;2105678;28;20147;-54
2023/03/08 00:25:20;;;;;;;0.20;0.20;;;;;;;16.05;45.57;100027.88;2108021;28;20055;-55
2023/03/08 00:26:23;;;;;;;0.00;0.00;;;;;;;16.05;45.80;100027.88;2109368;28;20134;-54
2023/03/08 00:27:25;;;;;;;0.10;0.10;;;;;;;16.06;45.74;100032.16;2111037;28;20060;-53
2023/03/08 00:28:29;;;;;;;0.00;0.00;;;;;;;16.06;45.35;100037.59;2109442;28;20079;-55
2023/03/08 00:29:32;;;;;;;0.08;0.08;;;;;;;16.05;45.63;100033.31;2102124;28;20052;-55
2023/03/08 00:30:35;;;;;;;0.00;0.00;;;;;;;16.06;45.76;100036.84;2100301;28;20048;-55
2023/03/08 00:31:37;;;;;;;0.00;0.00;;;;;;;16.06;45.72;100043.03;2105086;28;20516;-54
2023/03/08 00:32:40;;;;;;;0.00;0.00;;;;;;;16.06;45.68;100036.84;2107187;28;20424;-58
2023/03/08 00:33:42;;;;;;;0.00;0.00;;;;;;;16.05;45.51;100030.59;2111034;28;20081;-55
2023/03/08 00:34:51;;;;;;;0.00;0.00;;;;;;;16.05;45.58;100033.31;2101448;28;20052;-55
2023/03/08 00:35:57;;;;;;;0.00;0.00;;;;;;;16.03;45.57;100035.66;2102557;28;20127;-56
2023/03/08 00:37:00;;;;;;;0.08;0.08;;;;;;;16.04;45.65;100039.97;2108024;28;20056;-54
2023/03/08 00:38:02;;;;;;;0.10;0.10;;;;;;;16.04;45.60;100033.72;2107512;28;20497;-55
2023/03/08 00:39:05;;;;;;;0.15;0.15;;;;;;;16.04;45.67;100033.72;2106724;28;20544;-53
2023/03/08 00:40:10;;;;;;;0.00;0.00;;;;;;;16.04;45.50;100039.16;2105892;28;20059;-56
2023/03/08 00:41:13;;;;;;;0.00;0.00;;;;;;;16.03;45.51;100032.94;2106641;28;20056;-55
2023/03/08 00:42:15;;;;;;;0.00;0.00;;;;;;;16.04;45.59;100025.56;2107579;28;20206;-55
2023/03/08 00:43:18;;;;;;;0.10;0.10;;;;;;;16.03;45.49;100032.94;2108569;28;20063;-55
2023/03/08 00:44:20;;;;;;;0.00;0.00;;;;;;;16.03;45.53;100030.22;2105664;28;20462;-55
2023/03/08 00:45:26;;;;;;;0.00;0.00;;;;;;;16.03;45.59;100024.78;2099314;28;20660;-54
2023/03/08 00:46:28;;;;;;;0.05;0.05;;;;;;;15.98;45.69;100011.56;2099348;28;20084;-55
2023/03/08 00:47:31;;;;;;;0.00;0.00;;;;;;;16.04;45.55;100025.56;2106095;28;20779;-55
2023/03/08 00:48:33;;;;;;;0.00;0.00;;;;;;;16.02;45.56;100015.06;2109821;28;20063;-55
2023/03/08 00:49:36;;;;;;;0.10;0.10;;;;;;;16.03;45.53;100021.28;2105441;28;20059;-54
2023/03/08 00:50:38;;;;;;;0.08;0.08;;;;;;;16.01;45.76;100027.13;2110255;28;20056;-55
2023/03/08 00:51:42;;;;;;;0.10;0.10;;;;;;;16.03;45.69;100024.00;2106169;28;20056;-54
2023/03/08 00:52:44;;;;;;;0.00;0.00;;;;;;;16.02;45.46;100012.34;2109933;28;20056;-55
2023/03/08 00:53:48;;;;;;;0.00;0.00;;;;;;;16.02;45.69;100025.94;2103200;28;20058;-55
2023/03/08 00:54:50;;;;;;;0.00;0.00;;;;;;;16.02;45.61;100025.16;2106646;28;20619;-55
2023/03/08 00:55:56;;;;;;;0.10;0.10;;;;;;;16.03;45.49;100019.31;2106843;28;20142;-55
2023/03/08 00:56:58;;;;;;;0.10;0.10;;;;;;;16.01;45.56;100029.06;2111427;28;20528;-54
2023/03/08 00:58:01;;;;;;;0.10;0.10;;;;;;;16.01;45.60;100018.97;2111522;28;20511;-55
2023/03/08 00:59:03;;;;;;;0.00;0.00;;;;;;;16.01;45.55;100016.25;2105717;28;20043;-54
2023/03/08 01:00:11;;;;;;;0.00;0.00;;;;;;;16.02;45.80;100015.06;2108188;28;20769;-55
2023/03/08 01:01:16;;;;;;;0.00;0.00;;;;;;;16.00;45.43;100017.41;2107217;28;20762;-55
2023/03/08 01:02:21;;;;;;;0.00;0.00;;;;;;;16.00;45.56;100014.69;2107452;28;20493;-55
2023/03/08 01:03:23;;;;;;;0.10;0.10;;;;;;;16.01;45.35;100012.75;2108541;28;20504;-55
2023/03/08 01:04:27;;;;;;;0.03;0.03;;;;;;;16.01;45.67;100013.53;2111861;28;20813;-54
2023/03/08 01:05:28;;;;;;;0.00;0.00;;;;;;;16.00;45.48;100017.41;2107314;28;20128;-55
2023/03/08 01:06:31;;;;;;;0.00;0.00;;;;;;;16.00;45.50;100011.94;2108358;28;20576;-54
2023/03/08 01:07:33;;;;;;;0.10;0.10;;;;;;;16.00;45.62;100014.69;2104953;28;20126;-55
2023/03/08 01:08:38;;;;;;;0.10;0.10;;;;;;;16.00;45.55;100017.41;2106360;28;20094;-54
2023/03/08 01:09:40;;;;;;;0.10;0.10;;;;;;;15.99;45.54;100007.69;2109023;28;20063;-55
2023/03/08 01:10:47;;;;;;;0.05;0.05;;;;;;;16.00;45.49;100006.50;2108674;28;20047;-54
2023/03/08 01:11:52;;;;;;;0.00;0.00;;;;;;;16.01;45.49;100012.75;2112032;27;20055;-55
2023/03/08 01:12:54;;;;;;;0.10;0.10;;;;;;;15.97;45.55;100001.84;2104807;28;20523;-55
2023/03/08 01:13:57;;;;;;;0.10;0.10;;;;;;;15.99;45.39;100013.13;2106542;28;20119;-54
2023/03/08 01:14:59;;;;;;;0.00;0.00;;;;;;;15.99;45.52;100010.41;2106987;28;20115;-55
2023/03/08 01:16:03;;;;;;;0.10;0.10;;;;;;;15.99;45.47;100010.41;2107097;28;20394;-55
2023/03/08 01:17:04;;;;;;;0.00;0.00;;;;;;;16.00;45.43;100005.72;2106841;28;20077;-55
2023/03/08 01:18:07;;;;;;;0.00;0.00;;;;;;;15.99;45.51;100004.97;2106187;28;20083;-55
2023/03/08 01:19:10;;;;;;;0.08;0.08;;;;;;;15.99;45.40;100004.97;2106606;28;20086;-55
2023/03/08 01:20:13;;;;;;;0.00;0.00;;;;;;;15.98;45.43;100008.84;2098773;28;20127;-54
2023/03/08 01:21:16;;;;;;;0.00;0.00;;;;;;;15.98;45.42;100011.56;2110003;28;20048;-55
2023/03/08 01:22:19;;;;;;;0.00;0.00;;;;;;;15.98;45.49;100016.25;2106025;28;20099;-55
2023/03/08 01:23:21;;;;;;;0.00;0.00;;;;;;;15.98;45.50;100006.13;2105493;28;20097;-54
2023/03/08 01:24:24;;;;;;;0.10;0.10;;;;;;;15.99;45.50;100015.06;2107006;28;20680;-55
2023/03/08 01:25:26;;;;;;;0.05;0.05;;;;;;;15.99;45.46;100015.06;2104598;28;20429;-54
2023/03/08 01:26:29;;;;;;;0.00;0.00;;;;;;;15.99;45.39;100010.41;2107641;28;20078;-55
2023/03/08 01:27:32;;;;;;;0.05;0.05;;;;;;;15.99;45.43;100012.34;2107104;28;20071;-55
2023/03/08 01:28:35;;;;;;;0.00;0.00;;;;;;;15.98;45.38;100011.56;2108679;28;20561;-54
2023/03/08 01:29:37;;;;;;;0.00;0.00;;;;;;;15.98;45.29;100014.28;2109504;28;20184;-54
2023/03/08 01:30:40;;;;;;;0.13;0.13;;;;;;;15.98;45.56;100013.53;2110634;28;20090;-55
2023/03/08 01:31:42;;;;;;;0.10;0.10;;;;;;;15.96;45.51;100005.75;2106993;28;20052;-54
2023/03/08 01:32:45;;;;;;;0.00;0.00;;;;;;;15.98;45.39;100006.13;2107765;28;20040;-54
2023/03/08 01:33:48;;;;;;;0.00;0.00;;;;;;;15.97;45.38;100012.75;2106165;28;20052;-54
2023/03/08 01:34:51;;;;;;;0.20;0.20;;;;;;;15.97;45.40;100001.84;2104724;28;20052;-55
2023/03/08 01:35:53;;;;;;;0.00;0.00;;;;;;;15.96;45.20;100007.69;2106566;28;20055;-55
2023/03/08 01:36:56;;;;;;;0.00;0.00;;;;;;;15.96;45.43;100005.75;2111423;28;20504;-55
2023/03/08 01:37:58;;;;;;;0.20;0.20;;;;;;;15.97;45.51;100004.59;2108356;28;20047;-55
2023/03/08 01:39:01;;;;;;;0.00;0.00;;;;;;;15.97;45.45;99999.13;2105282;28;20091;-55
2023/03/08 01:40:05;;;;;;;0.00;0.00;;;;;;;15.97;45.56;100001.84;2101768;28;20040;-54
2023/03/08 01:41:12;;;;;;;0.00;0.00;;;;;;;15.96;45.40;100003.03;2102738;28;20055;-55
2023/03/08 01:42:14;;;;;;;0.10;0.10;;;;;;;15.95;45.50;99998.75;2100691;28;20059;-55
2023/03/08 01:43:24;;;;;;;0.00;0.00;;;;;;;15.94;45.37;100007.31;2103071;28;20076;-55
2023/03/08 01:44:26;;;;;;;0.00;0.00;;;;;;;15.94;45.77;100007.31;2093860;28;20135;-54
2023/03/08 01:46:15;;;;;;;0.08;0.08;;;;;;;15.86;45.60;100003.84;2086251;28;20053;-54
2023/03/08 01:47:20;;;;;;;0.05;0.05;;;;;;;15.86;45.72;100001.13;2062606;28;20590;-55
2023/03/08 01:48:47;;;;;;;0.00;0.00;;;;;;;15.86;45.62;99990.25;2102794;28;20489;-55
2023/03/08 01:49:53;;;;;;;0.00;0.00;;;;;;;15.86;45.55;99990.25;2106456;28;20489;-55
2023/03/08 01:50:56;;;;;;;0.00;0.00;;;;;;;15.88;45.34;99996.06;2100049;28;20040;-55
2023/03/08 01:52:03;;;;;;;0.00;0.00;;;;;;;15.90;45.58;99995.69;2100860;28;20051;-54
2023/03/08 01:53:06;;;;;;;0.00;0.00;;;;;;;15.88;45.53;99993.34;2096258;28;20091;-54
2023/03/08 01:54:14;;;;;;;0.00;0.00;;;;;;;15.89;45.26;99989.44;2097245;28;20493;-55
2023/03/08 01:55:18;;;;;;;0.00;0.00;;;;;;;15.89;45.50;99994.91;2106666;28;20051;-55
2023/03/08 01:56:22;;;;;;;0.10;0.10;;;;;;;15.90;45.43;99991.00;2104316;28;20071;-55
2023/03/08 01:57:28;;;;;;;0.15;0.15;;;;;;;15.86;45.42;99982.06;2105324;28;20047;-55
2023/03/08 01:58:33;;;;;;;0.10;0.10;;;;;;;15.89;45.83;99984.00;2096104;28;20052;-55
2023/03/08 01:59:37;;;;;;;0.10;0.10;;;;;;;15.89;45.53;99981.28;2087736;28;20056;-54
2023/03/08 02:00:40;;;;;;;0.00;0.00;;;;;;;15.90;45.47;99984.78;2094682;28;20087;-55
2023/03/08 02:01:42;;;;;;;0.00;0.00;;;;;;;15.90;45.40;99984.78;2084685;28;20060;-55
2023/03/08 02:02:51;;;;;;;0.00;0.00;;;;;;;15.89;45.23;99984.00;2083852;28;20053;-55
2023/03/08 02:03:53;;;;;;;0.00;0.00;;;;;;;15.86;45.50;99979.34;2089960;28;20083;-55
2023/03/08 02:04:57;;;;;;;0.10;0.10;;;;;;;15.90;45.23;99982.06;2094105;28;20056;-54
2023/03/08 02:06:01;;;;;;;0.10;0.10;;;;;;;15.89;45.26;99984.00;2101319;28;20128;-55
2023/03/08 02:07:06;;;;;;;0.10;0.10;;;;;;;15.89;45.48;99977.78;2113584;27;20122;-53
2023/03/08 02:08:08;;;;;;;0.08;0.08;;;;;;;15.89;45.26;99981.28;2114207;27;20134;-53
2023/03/08 02:09:13;;;;;;;0.10;0.10;;;;;;;15.89;45.39;99978.56;2108113;28;20083;-55
2023/03/08 02:10:16;;;;;;;0.05;0.05;;;;;;;15.89;45.34;99975.84;2110072;28;20044;-55
2023/03/08 02:11:21;;;;;;;0.10;0.10;;;;;;;15.90;45.47;99979.34;2107151;28;20048;-55
2023/03/08 02:12:25;;;;;;;0.00;0.00;;;;;;;15.89;45.45;99977.78;2106972;28;20052;-55
2023/03/08 02:13:28;;;;;;;0.10;0.10;;;;;;;15.88;45.18;99974.28;2108000;28;20054;-54
2023/03/08 02:14:32;;;;;;;0.10;0.10;;;;;;;15.90;45.42;99979.34;2104259;28;20082;-56
2023/03/08 02:15:36;;;;;;;0.10;0.10;;;;;;;15.89;45.46;99978.56;2100896;28;20545;-55
2023/03/08 02:16:39;;;;;;;0.10;0.10;;;;;;;15.86;45.42;99973.91;2101472;28;20062;-55
2023/03/08 02:17:42;;;;;;;0.00;0.00;;;;;;;15.89;45.34;99978.56;2104995;28;20056;-55
2023/03/08 02:18:57;;;;;;;0.03;0.03;;;;;;;15.85;45.26;99977.03;2103204;28;20098;-55
2023/03/08 02:20:09;;;;;;;0.00;0.00;;;;;;;15.85;45.30;99975.09;2099681;28;20386;-54
2023/03/08 02:21:12;;;;;;;0.00;0.00;;;;;;;15.86;45.42;99978.56;2101280;28;20044;-54
2023/03/08 02:22:16;;;;;;;0.00;0.00;;;;;;;15.87;45.22;99978.16;2104052;28;20059;-55
2023/03/08 02:23:24;;;;;;;0.13;0.13;;;;;;;15.87;45.34;99977.41;2105556;28;20040;-54
2023/03/08 02:24:26;;;;;;;0.10;0.10;;;;;;;15.86;45.43;99976.63;2107951;28;20123;-54
2023/03/08 02:25:29;;;;;;;0.03;0.03;;;;;;;15.87;45.32;99974.69;2107819;28;20393;-54
2023/03/08 02:26:31;;;;;;;0.10;0.10;;;;;;;15.88;45.32;99973.50;2109563;28;20047;-54
2023/03/08 02:27:34;;;;;;;0.00;0.00;;;;;;;15.87;45.33;99971.97;2107053;28;20529;-54
2023/03/08 02:28:37;;;;;;;0.10;0.10;;;;;;;15.87;45.38;99975.44;2106256;28;20517;-55
2023/03/08 02:29:40;;;;;;;0.10;0.10;;;;;;;15.87;45.20;99972.72;2106264;28;20052;-55
2023/03/08 02:30:42;;;;;;;0.10;0.10;;;;;;;15.87;45.29;99975.44;2104538;28;20059;-55
2023/03/08 02:31:45;;;;;;;0.10;0.10;;;;;;;15.88;45.33;99968.06;2105459;28;20405;-55
2023/03/08 02:32:47;;;;;;;0.03;0.03;;;;;;;15.88;45.24;99970.78;2105954;28;20123;-55
2023/03/08 02:33:50;;;;;;;0.10;0.10;;;;;;;15.88;45.30;99968.84;2104811;28;20091;-55
2023/03/08 02:34:52;;;;;;;0.10;0.10;;;;;;;15.88;45.32;99968.06;2103048;28;20052;-54
2023/03/08 02:35:55;;;;;;;0.10;0.10;;;;;;;15.87;45.39;99967.28;2104222;28;20051;-55
2023/03/08 02:36:57;;;;;;;0.10;0.10;;;;;;;15.86;45.20;99965.75;2106202;28;20060;-55
2023/03/08 02:38:00;;;;;;;0.10;0.10;;;;;;;15.87;45.29;99961.09;2106367;28;20482;-55
2023/03/08 02:39:03;;;;;;;0.03;0.03;;;;;;;15.85;45.31;99956.03;2105228;28;20075;-55
2023/03/08 02:40:08;;;;;;;0.10;0.10;;;;;;;15.87;45.33;99958.38;2098349;28;20129;-55
2023/03/08 02:41:10;;;;;;;0.10;0.10;;;;;;;15.87;45.34;99964.56;2104658;28;20051;-55
2023/03/08 02:42:12;;;;;;;0.10;0.10;;;;;;;15.87;45.26;99970.00;2104175;28;20127;-55
2023/03/08 02:43:18;;;;;;;0.10;0.10;;;;;;;15.86;45.20;99963.03;2104245;28;20082;-54
2023/03/08 02:44:20;;;;;;;0.10;0.10;;;;;;;15.86;45.31;99971.19;2104804;28;20533;-53
2023/03/08 02:45:23;;;;;;;0.10;0.10;;;;;;;15.86;45.16;99967.69;2105523;28;20044;-54
2023/03/08 02:46:26;;;;;;;0.10;0.10;;;;;;;15.86;45.36;99965.75;2104899;28;20051;-54
2023/03/08 02:47:28;;;;;;;0.10;0.10;;;;;;;15.86;45.30;99971.19;2106236;28;20048;-55
2023/03/08 02:48:31;;;;;;;0.03;0.03;;;;;;;15.86;45.15;99968.47;2109377;28;20142;-54
2023/03/08 02:49:33;;;;;;;0.10;0.10;;;;;;;15.86;44.88;99965.75;2110139;28;20055;-55
2023/03/08 02:50:36;;;;;;;0.10;0.10;;;;;;;15.86;45.26;99963.03;2105961;28;20059;-54
2023/03/08 02:51:38;;;;;;;0.10;0.10;;;;;;;15.86;45.43;99965.75;2104919;28;20077;-55
2023/03/08 02:52:41;;;;;;;0.10;0.10;;;;;;;15.85;45.32;99956.03;2104552;28;20056;-54
2023/03/08 02:53:43;;;;;;;0.00;0.00;;;;;;;15.86;45.32;99964.97;2104816;28;20043;-54
2023/03/08 02:54:47;;;;;;;0.10;0.10;;;;;;;15.87;45.22;99969.25;2104498;28;20059;-55
2023/03/08 02:55:50;;;;;;;0.10;0.10;;;;;;;15.85;45.32;99963.41;2107218;28;20056;-54
2023/03/08 02:56:52;;;;;;;0.10;0.10;;;;;;;15.85;45.13;99958.75;2104556;28;20461;-54
2023/03/08 02:57:55;;;;;;;0.10;0.10;;;;;;;15.77;45.39;99954.53;2106147;28;20466;-55
2023/03/08 02:58:58;;;;;;;0.10;0.10;;;;;;;15.85;45.20;99966.94;2101141;28;20067;-55
2023/03/08 03:00:01;;;;;;;0.10;0.10;;;;;;;15.86;45.36;99965.75;2089426;28;20060;-53
2023/03/08 03:01:04;;;;;;;0.10;0.10;;;;;;;15.86;45.20;99967.69;2093608;28;20055;-55
2023/03/08 03:02:06;;;;;;;0.10;0.10;;;;;;;15.85;44.86;99966.94;2101185;28;20525;-55
2023/03/08 03:03:09;;;;;;;0.10;0.10;;;;;;;15.85;45.24;99960.69;2104196;28;20052;-55
2023/03/08 03:04:11;;;;;;;0.10;0.10;;;;;;;15.85;45.12;99968.88;2109528;28;20052;-54
2023/03/08 03:05:14;;;;;;;0.10;0.10;;;;;;;15.81;45.23;99955.28;2098468;28;20196;-54
2023/03/08 03:06:19;;;;;;;0.10;0.10;;;;;;;15.81;45.11;99951.78;2098426;28;20107;-54
2023/03/08 03:07:26;;;;;;;0.00;0.00;;;;;;;15.83;45.42;99966.53;2099197;28;20620;-55
2023/03/08 03:08:29;;;;;;;0.00;0.00;;;;;;;15.83;45.24;99961.09;2092843;28;20539;-55
2023/03/08 03:09:34;;;;;;;0.13;0.13;;;;;;;15.84;45.16;99959.91;2104309;28;20056;-55
2023/03/08 03:10:38;;;;;;;0.00;0.00;;;;;;;15.84;45.07;99959.91;2102579;28;20123;-55
2023/03/08 03:11:41;;;;;;;0.10;0.10;;;;;;;15.84;45.06;99959.91;2103811;28;20043;-54
2023/03/08 03:12:43;;;;;;;0.00;0.00;;;;;;;15.82;45.23;99962.28;2100242;28;20414;-54
2023/03/08 03:13:55;;;;;;;0.00;0.00;;;;;;;15.82;45.08;99956.06;2097078;28;20052;-54
2023/03/08 03:15:00;;;;;;;0.00;0.00;;;;;;;15.79;45.13;99957.59;2096903;28;20118;-54
2023/03/08 03:16:06;;;;;;;0.00;0.00;;;;;;;15.79;45.16;99951.41;2096069;28;20505;-54
2023/03/08 03:17:08;;;;;;;0.00;0.00;;;;;;;15.80;45.38;99953.72;2104015;28;20056;-55
2023/03/08 03:18:11;;;;;;;0.00;0.00;;;;;;;15.82;45.23;99956.06;2099490;28;20053;-54
2023/03/08 03:19:13;;;;;;;0.00;0.00;;;;;;;15.82;45.14;99956.84;2100674;28;20045;-55
2023/03/08 03:20:16;;;;;;;0.00;0.00;;;;;;;15.82;44.96;99956.84;2113561;28;20215;-55
2023/03/08 03:21:19;;;;;;;0.00;0.00;;;;;;;15.82;44.94;99947.88;2112458;28;20077;-55
2023/03/08 03:22:21;;;;;;;0.10;0.10;;;;;;;15.83;45.15;99957.59;2101483;28;20052;-59
2023/03/08 03:23:24;;;;;;;0.00;0.00;;;;;;;15.78;45.09;99939.72;2093295;28;20505;-55
2023/03/08 03:24:28;;;;;;;0.10;0.10;;;;;;;15.81;45.14;99944.38;2103657;28;20489;-54
2023/03/08 03:25:35;;;;;;;0.03;0.03;;;;;;;15.82;44.97;99956.84;2103068;28;20091;-54
2023/03/08 03:26:40;;;;;;;0.20;0.20;;;;;;;15.82;45.08;99945.94;2090635;28;20052;-55
2023/03/08 03:27:42;;;;;;;0.00;0.00;;;;;;;15.80;44.97;99945.56;2106201;28;20544;-54
2023/03/08 03:28:45;;;;;;;0.00;0.00;;;;;;;15.82;45.18;99947.88;2109097;28;20488;-55
2023/03/08 03:29:47;;;;;;;0.55;0.55;;;;;;;15.82;45.28;99956.06;2101708;28;20516;-55
2023/03/08 03:30:52;;;;;;;0.00;0.00;;;;;;;15.82;45.47;99956.06;2099568;28;20048;-54
2023/03/08 03:31:54;;;;;;;0.05;0.05;;;;;;;15.80;45.18;99950.22;2113184;28;20088;-55
2023/03/08 03:32:57;;;;;;;0.10;0.10;;;;;;;15.81;45.09;99949.06;2103089;28;20148;-55
2023/03/08 03:34:03;;;;;;;0.00;0.00;;;;;;;15.79;45.10;99952.16;2102949;28;20052;-54
2023/03/08 03:35:07;;;;;;;0.00;0.00;;;;;;;15.80;44.97;99951.00;2107940;28;20432;-54
2023/03/08 03:36:11;;;;;;;0.00;0.00;;;;;;;15.80;45.09;99951.00;2109758;28;20048;-54
2023/03/08 03:37:14;;;;;;;0.00;0.00;;;;;;;15.79;45.16;99952.16;2098040;28;20052;-55
2023/03/08 03:38:16;;;;;;;0.00;0.00;;;;;;;15.79;45.15;99946.72;2105387;28;20052;-57
2023/03/08 03:39:20;;;;;;;0.00;0.00;;;;;;;15.80;45.17;99945.56;2110826;28;20039;-55
2023/03/08 03:40:22;;;;;;;0.10;0.10;;;;;;;15.79;45.04;99946.72;2103528;28;20071;-56
2023/03/08 03:41:30;;;;;;;0.00;0.00;;;;;;;15.78;44.96;99939.72;2104312;28;20081;-55
2023/03/08 03:42:39;;;;;;;0.00;0.00;;;;;;;15.79;45.15;99940.53;2100396;28;20441;-55
2023/03/08 03:43:48;;;;;;;0.25;0.25;;;;;;;15.76;45.03;99944.03;2105298;28;20388;-55
2023/03/08 03:44:50;;;;;;;0.00;0.00;;;;;;;15.77;45.00;99938.19;2109447;28;20136;-55
2023/03/08 03:45:56;;;;;;;0.00;0.00;;;;;;;15.78;45.34;99942.44;2098414;28;20454;-55
2023/03/08 03:46:59;;;;;;;0.00;0.00;;;;;;;15.77;45.00;99942.84;2094512;28;20041;-56
2023/03/08 03:48:03;;;;;;;0.00;0.00;;;;;;;15.76;45.10;99947.50;2101264;28;20095;-55
2023/03/08 03:49:06;;;;;;;0.15;0.15;;;;;;;15.77;45.00;99951.81;2112048;28;20052;-55
2023/03/08 03:50:13;;;;;;;0.00;0.00;;;;;;;15.77;45.04;99949.09;2100603;28;20090;-55
2023/03/08 03:51:29;;;;;;;0.50;0.50;;;;;;;15.74;45.09;99955.31;2102666;28;20040;-55
2023/03/08 03:52:48;;;;;;;0.00;0.00;;;;;;;15.72;45.23;99954.94;2108240;28;20063;-55
2023/03/08 03:53:50;;;;;;;0.00;0.00;;;;;;;15.73;45.07;99953.75;2105750;28;20055;-54
2023/03/08 03:54:55;;;;;;;0.52;0.52;;;;;;;15.74;45.14;99947.16;2099790;28;20513;-55
2023/03/08 03:56:02;;;;;;;0.00;0.00;;;;;;;15.74;45.12;99949.09;2111238;28;20534;-55
2023/03/08 03:57:05;;;;;;;0.00;0.00;;;;;;;15.74;45.15;99951.81;2111082;28;20418;-56
2023/03/08 03:58:12;;;;;;;0.22;0.22;;;;;;;15.74;44.99;99955.31;2110737;28;20528;-55
2023/03/08 03:59:15;;;;;;;0.00;0.00;;;;;;;15.74;45.07;99949.88;2108993;28;20060;-55
2023/03/08 04:00:17;;;;;;;0.00;0.00;;;;;;;15.74;45.11;99952.59;2098408;28;20079;-55
2023/03/08 04:01:30;;;;;;;0.00;0.00;;;;;;;15.72;45.12;99952.22;2106205;27;20039;-55
2023/03/08 04:02:39;;;;;;;0.00;0.00;;;;;;;15.72;45.14;99952.22;2105048;28;20044;-55
2023/03/08 04:03:44;;;;;;;0.10;0.10;;;;;;;15.73;45.31;99953.00;2107908;28;20075;-55
2023/03/08 04:04:48;;;;;;;0.10;0.10;;;;;;;15.73;45.29;99948.31;2111792;28;20079;-55
2023/03/08 04:05:52;;;;;;;0.08;0.08;;;;;;;15.73;45.03;99953.00;2111009;28;20079;-55
2023/03/08 04:06:54;;;;;;;0.00;0.00;;;;;;;15.73;45.15;99955.72;2103804;28;20122;-55
2023/03/08 04:08:00;;;;;;;0.10;0.10;;;;;;;15.73;44.98;99958.44;2104526;28;20044;-55
2023/03/08 04:09:12;;;;;;;0.00;0.00;;;;;;;15.73;44.93;99956.47;2100967;28;20560;-55
2023/03/08 04:10:16;;;;;;;0.10;0.10;;;;;;;15.71;44.85;99953.38;2104391;28;20051;-55
2023/03/08 04:11:20;;;;;;;0.08;0.08;;;;;;;15.73;45.18;99953.00;2099727;28;20695;-55
2023/03/08 04:12:24;;;;;;;0.00;0.00;;;;;;;15.73;45.00;99956.47;2097080;28;20048;-54
2023/03/08 04:13:27;;;;;;;0.10;0.10;;;;;;;15.73;45.02;99953.75;2097660;28;20052;-55
2023/03/08 04:14:30;;;;;;;0.10;0.10;;;;;;;15.73;45.02;99947.56;2102155;28;20078;-55
2023/03/08 04:15:32;;;;;;;0.05;0.05;;;;;;;15.72;45.00;99944.03;2102730;28;20097;-55
2023/03/08 04:16:40;;;;;;;0.10;0.10;;;;;;;15.73;44.92;99948.31;2098521;28;20052;-54
2023/03/08 04:17:50;;;;;;;0.08;0.08;;;;;;;15.71;45.14;99945.22;2101220;28;20544;-55
2023/03/08 04:18:55;;;;;;;0.05;0.05;;;;;;;15.72;45.06;99957.66;2100739;28;20052;-55
2023/03/08 04:19:58;;;;;;;0.00;0.00;;;;;;;15.71;45.04;99945.22;2096003;28;20136;-55
2023/03/08 04:21:03;;;;;;;0.03;0.03;;;;;;;15.71;45.04;99950.66;2099317;28;20127;-54
2023/03/08 04:22:06;;;;;;;0.08;0.08;;;;;;;15.72;44.91;99948.69;2102187;28;20489;-56
2023/03/08 04:23:17;;;;;;;0.10;0.10;;;;;;;15.70;44.54;99946.38;2104852;28;20051;-55
2023/03/08 04:24:21;;;;;;;0.00;0.00;;;;;;;15.71;45.02;99949.88;2102137;28;20412;-54
2023/03/08 04:25:27;;;;;;;0.10;0.10;;;;;;;15.70;44.95;99959.97;2100966;28;20051;-55
2023/03/08 04:26:33;;;;;;;0.10;0.10;;;;;;;15.71;45.12;99947.94;2097718;28;20443;-55
2023/03/08 04:27:36;;;;;;;0.10;0.10;;;;;;;15.70;45.05;99943.66;2107209;28;20139;-53
2023/03/08 04:28:39;;;;;;;0.10;0.10;;;;;;;15.72;44.96;99935.09;2107262;28;20075;-55
2023/03/08 04:29:42;;;;;;;0.00;0.00;;;;;;;15.70;45.27;99943.66;2104320;28;20080;-55
2023/03/08 04:30:45;;;;;;;0.00;0.00;;;;;;;15.71;45.03;99939.78;2103982;28;20603;-55
2023/03/08 04:31:50;;;;;;;0.08;0.08;;;;;;;15.70;45.05;99937.44;2104189;28;20044;-55
2023/03/08 04:32:54;;;;;;;0.03;0.03;;;;;;;15.70;45.08;99937.44;2104882;28;20062;-55
2023/03/08 04:34:01;;;;;;;0.05;0.05;;;;;;;15.70;44.97;99932.78;2099866;28;20918;-55
2023/03/08 04:35:04;;;;;;;0.05;0.05;;;;;;;15.70;44.90;99937.44;2100475;28;20089;-55
2023/03/08 04:36:09;;;;;;;0.00;0.00;;;;;;;15.71;44.79;99939.78;2100340;28;20127;-55
2023/03/08 04:37:13;;;;;;;0.10;0.10;;;;;;;15.71;44.90;99937.06;2108493;28;20047;-55
2023/03/08 04:38:18;;;;;;;0.10;0.10;;;;;;;15.70;44.60;99932.00;2105593;28;20444;-56
2023/03/08 04:39:24;;;;;;;0.03;0.03;;;;;;;15.70;44.79;99927.34;2104792;28;20055;-55
2023/03/08 04:40:26;;;;;;;0.03;0.03;;;;;;;15.70;44.96;99935.50;2097831;28;20068;-55
2023/03/08 04:41:36;;;;;;;0.10;0.10;;;;;;;15.69;44.92;99935.88;2093121;28;20086;-55
2023/03/08 04:42:48;;;;;;;0.08;0.08;;;;;;;15.67;45.18;99935.50;2093578;28;20495;-55
2023/03/08 04:43:57;;;;;;;0.10;0.10;;;;;;;15.68;44.97;99937.81;2101356;28;20048;-55
2023/03/08 04:45:10;;;;;;;0.10;0.10;;;;;;;15.66;45.13;99932.03;2104577;28;20072;-55
2023/03/08 04:46:15;;;;;;;0.10;0.10;;;;;;;15.64;44.94;99919.97;2103321;28;20091;-55
2023/03/08 04:47:17;;;;;;;0.08;0.08;;;;;;;15.68;44.90;99937.06;2105080;28;20063;-55
2023/03/08 04:48:21;;;;;;;0.10;0.10;;;;;;;15.68;44.89;99929.66;2107832;28;20511;-54
2023/03/08 04:49:24;;;;;;;0.00;0.00;;;;;;;15.68;45.11;99921.50;2107832;28;20052;-55
2023/03/08 04:50:33;;;;;;;0.05;0.05;;;;;;;15.67;44.83;99933.56;2109000;28;20044;-55
2023/03/08 04:51:36;;;;;;;0.10;0.10;;;;;;;15.68;45.00;99923.47;2107861;28;20504;-55
2023/03/08 04:52:41;;;;;;;0.10;0.10;;;;;;;15.67;44.88;99922.69;2106197;28;20669;-54
2023/03/08 04:53:44;;;;;;;0.05;0.05;;;;;;;15.68;44.70;99924.22;2111811;28;20481;-55
2023/03/08 04:54:46;;;;;;;0.10;0.10;;;;;;;15.68;44.69;99924.22;2099054;28;20051;-55
2023/03/08 04:55:55;;;;;;;0.10;0.10;;;;;;;15.67;44.59;99922.69;2109910;28;20043;-55
2023/03/08 04:56:57;;;;;;;0.10;0.10;;;;;;;15.66;44.50;99921.16;2102061;28;20268;-54
2023/03/08 04:58:00;;;;;;;0.00;0.00;;;;;;;15.68;44.85;99924.22;2103259;28;20524;-55
2023/03/08 04:59:06;;;;;;;0.05;0.05;;;;;;;15.68;44.91;99918.03;2112436;28;20644;-55
2023/03/08 05:00:11;;;;;;;0.00;0.00;;;;;;;15.68;44.91;99916.06;2108487;28;20043;-55
2023/03/08 05:01:18;;;;;;;0.00;0.00;;;;;;;15.67;44.86;99911.78;2110358;27;20097;-55